Aeroporto :
LOGIN :

Iscrizione | Disclaimer

   EN    FR    IT 

 










Sommario :    VFR   VFR Marginale   IFR   IFR Intensivo   IFR Molto Intensivo
Visibilità : 
Base nubi : 
>= 8 km
>= 3000ft
5 / 8 km
1000 / 3000 ft
1500m / 5 km
500 / 1000 ft
800 / 1500m
200 / 500 ft
< 800m
< 200 ft
Simboli :   Temporali  Nebbia  Neve Forte  Precipitazioni Forti  Vento > 20 kt
SIGMETs :   Varie  Temporali  Ghiacco  Turbolenza  Onda orograficha  Ceneri Vulcaniche






- Altitudine del aeroporto : 242 ft
- Codice IATA : DUB


EIDW - Dublin

ULTIMO METAR :
  • 200630Z 20008KT 140V230 9999 FEW010 BKN080 OVC210 12/07 Q1013 NOSIG

METARs OBSOLETI :
  • 200600Z 19006KT 150V220 9999 FEW014 SCT080 BKN210 11/07 Q1013 NOSIG
  • 200530Z 18007KT 140V230 9999 FEW014 BKN200 11/07 Q1013 NOSIG
  • 200500Z 20004KT 150V250 9999 FEW014 BKN200 10/07 Q1014 NOSIG
  • 200430Z 19007KT 9999 FEW015 BKN220 10/07 Q1014 NOSIG
  • 200400Z 17005KT 110V230 9999 FEW015 BKN220 10/07 Q1014 NOSIG

TAF TAF EIDW
Valido dal 20 a 06 ore il 21 a 06 ore UTC


200500Z 2006/2106 19008KT 9999 FEW015 SCT040
BECMG 2006/2008 21013KT
PROB30
TEMPO 2008/2009 4000 SHRA SCT012 SCT020CB
TEMPO 2009/2012 4000 SHRA SCT012 SCT020CB
PROB30
TEMPO 2009/2012 22014G25KT 2500 SHRAGS BKN012
BECMG 2012/2014 25015KT
TEMPO 2012/2017 -SHRA SCT020CB
PROB30
TEMPO 2012/2015 4000 SHRAGS
TEMPO 2013/2019 26016G27KT
BECMG 2019/2021 25010KT
PROB40
TEMPO 2101/2104 26014G25KT



MetMap, La meteo Aeronautica in un colpo d'occhio ! - Copyright ORBIFLY Dicembre 2007 - Disclaimer

ORBIFLY MET'MAP TEAM :

Programmazione e sviluppo : Alexandra Zaïnal
Concezione : Baudouin d'Aumeries
Supporto tecnico e logistico : Manuel Goepfert
Aiuto : Marc-Olivier Méhu
Aiuto per la traduzione : Arnaldo La Scala

Contatto : metmap@orbifly.com




FONTI E CREDITI :

   NOAA